createdAt,value
2022-08-03T00:02:24.145Z,5.47
2022-08-03T00:07:27.153Z,6.18
2022-08-03T00:12:30.028Z,4.28
2022-08-03T00:17:52.311Z,8.05
2022-08-03T00:22:55.881Z,3.25
2022-08-03T00:27:58.765Z,4.43
2022-08-03T00:33:02.122Z,3.78
2022-08-03T00:38:06.074Z,5.18
2022-08-03T00:43:09.231Z,4.25
2022-08-03T00:48:29.671Z,4.93
2022-08-03T00:53:36.837Z,12.32
2022-08-03T00:58:39.660Z,4.55
2022-08-03T01:03:42.592Z,5.97
2022-08-03T01:09:23.466Z,4.35
2022-08-03T01:14:35.141Z,4.95
2022-08-03T01:19:43.289Z,7.63
2022-08-03T01:25:06.638Z,5.03
2022-08-03T01:30:17.314Z,4.72
2022-08-03T01:35:28.677Z,5.25
2022-08-03T01:40:34.990Z,5.43
2022-08-03T01:45:38.953Z,9.27
2022-08-03T01:50:42.332Z,7.50
2022-08-03T01:55:50.544Z,7.05
2022-08-03T02:00:54.161Z,6.38
2022-08-03T02:06:18.151Z,5.05
2022-08-03T02:11:23.243Z,8.55
2022-08-03T02:16:32.529Z,10.90
2022-08-03T02:21:56.720Z,4.95
2022-08-03T02:32:04.938Z,4.65
2022-08-03T02:37:09.309Z,4.30
2022-08-03T02:42:13.308Z,3.60
2022-08-03T02:47:54.175Z,4.35
2022-08-03T02:52:55.846Z,3.60
2022-08-03T02:58:01.623Z,4.15
2022-08-03T03:03:10.214Z,5.88
2022-08-03T03:08:28.299Z,3.58
2022-08-03T03:13:32.590Z,5.50
2022-08-03T03:18:41.857Z,3.58
2022-08-03T03:23:44.860Z,8.40
2022-08-03T03:28:49.848Z,3.58
2022-08-03T03:33:54.048Z,6.68
2022-08-03T03:39:00.049Z,5.75
2022-08-03T03:44:18.416Z,3.90
2022-08-03T03:49:21.705Z,5.25
2022-08-03T03:54:25.493Z,4.97
2022-08-03T03:59:45.968Z,8.13
2022-08-03T04:05:07.869Z,3.67
2022-08-03T04:10:43.010Z,6.72
2022-08-03T04:15:46.197Z,8.15
2022-08-03T04:20:52.390Z,8.30
2022-08-03T04:25:56.483Z,8.50
2022-08-03T04:31:00.686Z,8.18
2022-08-03T04:36:07.141Z,6.43
2022-08-03T04:41:10.105Z,7.32
2022-08-03T04:46:16.942Z,4.45
2022-08-03T04:51:19.885Z,4.35
2022-08-03T04:56:22.782Z,5.10
2022-08-03T05:01:26.312Z,6.63
2022-08-03T05:06:29.806Z,3.30
2022-08-03T05:11:38.775Z,3.30
2022-08-03T05:16:41.628Z,2.15
2022-08-03T05:21:51.986Z,3.58
2022-08-03T05:26:55.718Z,3.50
2022-08-03T05:31:58.503Z,4.45
2022-08-03T05:37:01.329Z,5.35
2022-08-03T05:42:04.412Z,3.08
2022-08-03T05:47:07.196Z,4.88
2022-08-03T05:52:16.147Z,4.88
2022-08-03T05:57:21.124Z,6.35
2022-08-03T06:02:24.501Z,3.88
2022-08-03T06:07:27.589Z,5.28
2022-08-03T06:12:30.755Z,2.47
2022-08-03T06:17:37.557Z,3.80
2022-08-03T06:22:44.511Z,1.90
2022-08-03T06:27:54.185Z,2.70
2022-08-03T06:32:56.952Z,1.92
2022-08-03T06:37:59.936Z,2.35
2022-08-03T06:43:04.578Z,2.70
2022-08-03T06:48:09.454Z,3.25
2022-08-03T06:53:19.240Z,2.00
2022-08-03T06:58:24.245Z,3.03
2022-08-03T07:03:27.039Z,4.70
2022-08-03T07:08:34.272Z,5.60
2022-08-03T07:13:41.691Z,4.18
2022-08-03T07:18:44.526Z,1.40
2022-08-03T07:23:47.446Z,7.78
2022-08-03T07:28:50.315Z,3.80
2022-08-03T07:33:53.365Z,1.88
2022-08-03T07:38:58.417Z,1.80
2022-08-03T07:44:20.035Z,3.22
2022-08-03T07:49:22.861Z,2.33
2022-08-03T07:54:25.754Z,2.53
2022-08-03T08:00:01.977Z,2.42
2022-08-03T08:05:05.745Z,2.22
2022-08-03T08:10:10.437Z,1.75
2022-08-03T08:15:13.557Z,2.43
2022-08-03T08:20:30.633Z,3.22
2022-08-03T08:25:35.175Z,5.93
2022-08-03T08:30:38.050Z,6.90
2022-08-03T08:35:43.546Z,2.80
2022-08-03T08:40:50.574Z,3.50
2022-08-03T08:45:57.389Z,3.70
2022-08-03T08:51:00.946Z,3.57
2022-08-03T08:56:05.098Z,4.30
2022-08-03T09:01:08.090Z,4.13
2022-08-03T09:06:11.933Z,2.67
2022-08-03T09:11:17.439Z,2.83
2022-08-03T09:16:22.430Z,4.63
2022-08-03T09:21:32.035Z,4.55
2022-08-03T09:26:37.098Z,3.20
2022-08-03T09:31:45.674Z,3.65
2022-08-03T09:36:50.619Z,4.50
2022-08-03T09:42:10.302Z,5.30
2022-08-03T09:47:15.112Z,5.07
2022-08-03T09:52:38.285Z,2.00
2022-08-03T09:57:45.854Z,4.30
2022-08-03T10:02:54.978Z,3.50
2022-08-03T10:07:57.784Z,1.90
2022-08-03T10:13:00.758Z,2.10
2022-08-03T10:18:04.153Z,1.98
2022-08-03T10:23:12.633Z,4.57
2022-08-03T10:28:19.107Z,3.30
2022-08-03T10:33:50.259Z,2.75
2022-08-03T10:38:53.551Z,3.78
2022-08-03T10:44:04.998Z,3.07
2022-08-03T10:49:34.565Z,7.75
2022-08-03T10:55:03.250Z,2.60
2022-08-03T11:00:08.474Z,4.40
2022-08-03T11:05:30.222Z,2.80
2022-08-03T11:10:34.730Z,3.00
2022-08-03T11:15:37.857Z,6.63
2022-08-03T11:21:05.412Z,5.60
2022-08-03T11:26:22.953Z,4.88
2022-08-03T11:31:49.815Z,4.63
2022-08-03T11:37:21.010Z,4.35
2022-08-03T11:42:27.468Z,4.50
2022-08-03T11:47:30.604Z,4.45
2022-08-03T11:52:39.013Z,8.00
2022-08-03T11:59:13.094Z,5.70
2022-08-03T12:03:10.458Z,5.65
2022-08-03T12:08:15.054Z,5.57
2022-08-03T12:14:43.924Z,3.87
2022-08-03T12:18:41.515Z,4.88
2022-08-03T12:23:44.802Z,7.40
2022-08-03T12:28:50.875Z,4.38
2022-08-03T12:34:03.717Z,5.22
2022-08-03T12:39:12.219Z,4.60
2022-08-03T12:44:24.967Z,3.83
2022-08-03T12:49:28.563Z,4.30
2022-08-03T12:54:32.968Z,3.50
2022-08-03T12:59:45.167Z,6.20
2022-08-03T13:04:56.946Z,4.20
2022-08-03T13:10:06.177Z,3.47
2022-08-03T13:15:10.867Z,4.78
2022-08-03T13:20:13.633Z,8.57
2022-08-03T13:25:17.347Z,4.05
2022-08-03T13:30:30.377Z,5.55
2022-08-03T13:35:33.529Z,3.55
2022-08-03T13:40:41.840Z,6.90
2022-08-03T13:45:49.617Z,5.78
2022-08-03T13:50:55.224Z,5.68
2022-08-03T13:56:00.687Z,6.40
2022-08-03T14:01:03.404Z,5.78
2022-08-03T14:06:06.238Z,11.77
2022-08-03T14:11:09.058Z,10.90
2022-08-03T14:16:46.567Z,7.40
2022-08-03T14:22:37.746Z,7.93
2022-08-03T14:27:55.488Z,6.97
2022-08-03T14:33:04.123Z,7.10
2022-08-03T14:38:07.077Z,11.15
2022-08-03T14:43:23.118Z,26.90
2022-08-03T14:50:32.570Z,9.95
2022-08-03T14:53:50.841Z,7.88
2022-08-03T14:58:53.672Z,6.90
2022-08-03T15:03:56.639Z,7.22
2022-08-03T15:09:21.374Z,12.32
2022-08-03T15:14:22.202Z,5.53
2022-08-03T15:20:02.752Z,6.53
2022-08-03T15:24:54.283Z,5.80
2022-08-03T15:30:07.741Z,11.45
2022-08-03T15:35:13.122Z,5.47
2022-08-03T15:40:15.835Z,7.47
2022-08-03T15:45:20.534Z,6.50
2022-08-03T15:50:23.501Z,5.43
2022-08-03T15:55:26.589Z,5.53
2022-08-03T16:00:33.792Z,8.60
2022-08-03T16:05:37.001Z,8.60
2022-08-03T16:10:41.064Z,10.73
2022-08-03T16:15:43.842Z,8.40
2022-08-03T16:20:47.022Z,9.90
2022-08-03T16:25:49.844Z,7.80
2022-08-03T16:30:52.641Z,7.07
2022-08-03T16:35:55.437Z,6.22
2022-08-03T16:41:00.042Z,6.10
2022-08-03T16:46:02.841Z,5.30
2022-08-03T16:51:05.668Z,6.40
2022-08-03T16:56:10.709Z,7.00
2022-08-03T17:06:34.489Z,6.80
2022-08-03T17:11:46.400Z,6.28
2022-08-03T17:16:54.130Z,7.18
2022-08-03T17:22:01.673Z,4.75
2022-08-03T17:27:09.376Z,7.45
2022-08-03T17:32:42.792Z,8.43
2022-08-03T17:38:03.089Z,7.65
2022-08-03T17:44:08.129Z,7.18
2022-08-03T17:48:32.295Z,8.70
2022-08-03T17:59:08.243Z,7.30
2022-08-03T18:04:13.057Z,9.10
2022-08-03T18:15:01.141Z,11.63
2022-08-03T18:20:32.287Z,8.95
2022-08-03T18:25:45.740Z,10.40
2022-08-03T18:30:54.996Z,8.38
2022-08-03T18:35:58.236Z,10.87
2022-08-03T18:41:01.025Z,11.90
2022-08-03T18:46:05.251Z,11.68
2022-08-03T18:51:28.692Z,10.65
2022-08-03T18:57:03.223Z,9.55
2022-08-03T19:02:48.829Z,10.18
2022-08-03T19:08:00.424Z,9.82
2022-08-03T19:13:11.295Z,12.35
2022-08-03T19:18:17.112Z,10.50
2022-08-03T19:23:39.587Z,11.73
2022-08-03T19:28:43.656Z,11.88
2022-08-03T19:33:57.350Z,11.57
2022-08-03T19:44:07.717Z,15.88
2022-08-03T19:49:15.361Z,20.77
2022-08-03T19:59:49.664Z,12.75
2022-08-03T20:04:53.583Z,14.85
2022-08-03T20:09:57.027Z,14.70
2022-08-03T20:15:00.189Z,17.35
2022-08-03T20:25:12.223Z,19.95
2022-08-03T20:30:27.195Z,18.30
2022-08-03T20:35:30.215Z,20.85
2022-08-03T20:40:34.130Z,19.75
2022-08-03T20:46:00.172Z,23.63
2022-08-03T20:51:01.613Z,24.57
2022-08-03T20:56:04.667Z,23.17
2022-08-03T21:01:07.463Z,24.60
2022-08-03T21:06:17.529Z,25.85
2022-08-03T21:11:41.987Z,22.35
2022-08-03T21:12:57.104Z,8.77
2022-08-03T21:13:03.181Z,19.95
2022-08-03T21:16:51.161Z,23.80
2022-08-03T21:21:54.892Z,28.58
2022-08-03T21:26:57.739Z,24.67
2022-08-03T21:32:01.522Z,25.52
2022-08-03T21:37:04.431Z,26.10
2022-08-03T21:42:07.195Z,24.65
2022-08-03T21:47:11.713Z,23.40
2022-08-03T21:52:14.578Z,26.00
2022-08-03T21:57:25.612Z,23.05
2022-08-03T22:02:32.222Z,20.40
2022-08-03T22:07:35.537Z,19.38
2022-08-03T22:12:38.549Z,17.60
2022-08-03T22:17:54.898Z,15.88
2022-08-03T22:23:05.311Z,18.65
2022-08-03T22:28:10.092Z,16.05
2022-08-03T22:33:13.309Z,17.33
2022-08-03T22:38:18.185Z,19.63
2022-08-03T22:43:27.882Z,15.00
2022-08-03T22:48:35.256Z,18.38
2022-08-03T22:53:45.569Z,22.23
2022-08-03T22:58:48.355Z,19.48
2022-08-03T23:04:00.897Z,19.90
2022-08-03T23:09:10.457Z,20.52
2022-08-03T23:14:19.612Z,17.88
2022-08-03T23:19:26.137Z,18.25
2022-08-03T23:24:30.235Z,22.20
2022-08-03T23:29:37.007Z,25.35
2022-08-03T23:34:59.064Z,28.00
2022-08-03T23:40:02.340Z,21.23
2022-08-03T23:45:06.623Z,25.67
2022-08-03T23:50:09.381Z,25.95
2022-08-03T23:55:12.085Z,23.15
